Orfeas — V7FK4 — position and weather

sailwx.info

Track history (hours):
 
Tides and Currents Weather Stations Pressure Air Temp Water Temp Dewpoint Dewpoint Depression Visibility Wind Speed Wind Dir Waves Ship Positions

Orfeas

Last reported at 2018-Jun-20 15:23 UTC. Time now 2018-Jun-21 03:00 UTC.
Position N 50°59' W 009°47'.

Length 192 m; draft 12.2 m.

Type: Cargo ship. MMSI: 538001960.

Date/timePositionNaut miles runAvg speedWind from/ knotsBaromVisibWave heightAir tempDewpointWater temp
2018-Jun-20 15:23N 50°59' W 009°47'512.6
2018-Jun-20 15:00N 50°60' W 009°39'1212.7
2018-Jun-20 14:03N 51°03' W 009°21'112.8
2018-Jun-20 14:00N 51°03' W 009°20'712.9
2018-Jun-20 13:28N 51°05' W 009°09'1612.7
2018-Jun-20 12:11N 51°08' W 008°44'1912.3
2018-Jun-20 10:37N 51°13' W 008°14'212.2
2018-Jun-20 10:25N 51°13' W 008°10'512.2
2018-Jun-20 09:58N 51°14' W 008°02'612.2
2018-Jun-20 09:30N 51°16' W 007°53'612.2
2018-Jun-20 09:00N 51°17' W 007°43'8012.3
2018-Jun-20 02:30N 51°35' W 005°39'713.1
2018-Jun-20 02:00N 51°37' W 005°29'713.2
2018-Jun-20 01:30N 51°39' W 005°18'5 9.5
2018-Jun-20 01:00N 51°40' W 005°11'4 8.5
2018-Jun-20 00:30N 51°42' W 005°05'2 3.7
2018-Jun-20 00:00N 51°42' W 005°02'  
2018-Jun-17 09:19N 51°42' W 005°02'0 0.0
2018-Jun-17 09:00N 51°42' W 005°02'2 3.7
2018-Jun-17 08:31N 51°42' W 005°05'4 7.7
2018-Jun-17 08:00N 51°40' W 005°10'5 9.5
2018-Jun-17 07:31N 51°36' W 005°15'4 8.6
2018-Jun-17 07:00N 51°33' W 005°11'3 5.6
2018-Jun-17 06:31N 51°30' W 005°10'4 7.1
2018-Jun-17 06:01N 51°27' W 005°09'2 3.1
2018-Jun-17 05:30N 51°26' W 005°11'1 2.6
2018-Jun-17 05:01N 51°26' W 005°13'1 2.6
2018-Jun-17 04:29N 51°27' W 005°15'1 2.6
2018-Jun-17 04:00N 51°27' W 005°17'1 2.6
2018-Jun-17 03:30N 51°28' W 005°19'1 2.4
2018-Jun-17 03:00N 51°29' W 005°20'2 3.2
2018-Jun-17 02:31N 51°30' W 005°21'2 4.4
2018-Jun-17 02:01N 51°32' W 005°20'2 3.1
2018-Jun-17 01:30N 51°34' W 005°19'1 3.0
2018-Jun-17 01:01N 51°35' W 005°18'1 3.0
2018-Jun-17 00:31N 51°36' W 005°16'1 2.8
2018-Jun-17 00:01N 51°37' W 005°14'1 2.4
2018-Jun-16 23:30N 51°38' W 005°13'3 6.3
2018-Jun-16 23:01N 51°39' W 005°18'2 3.9
2018-Jun-16 22:31N 51°39' W 005°21'4 7.2
2018-Jun-16 22:01N 51°43' W 005°21'4 7.1
2018-Jun-16 21:30N 51°46' W 005°18'1 0.1
2018-Jun-16 13:26N 51°46' W 005°16'0 0.0
2018-Jun-16 06:17N 51°47' W 005°16'0 0.1
2018-Jun-16 05:53N 51°47' W 005°16'0 0.0
2018-Jun-16 05:14N 51°47' W 005°16'0 0.1
2018-Jun-16 04:41N 51°47' W 005°16'0 0.1
2018-Jun-16 04:23N 51°47' W 005°16'0 0.0
2018-Jun-16 03:08N 51°47' W 005°16'0 0.0
2018-Jun-16 02:59N 51°47' W 005°16'0 0.1
2018-Jun-16 01:23N 51°47' W 005°16'0 0.0
2018-Jun-15 23:38N 51°47' W 005°16'0 0.1
2018-Jun-15 23:17N 51°47' W 005°16'0 0.0
2018-Jun-15 22:53N 51°47' W 005°16'0 0.0
2018-Jun-15 22:29N 51°47' W 005°16'0 0.0
2018-Jun-15 21:26N 51°47' W 005°16'0 0.0
2018-Jun-15 20:53N 51°47' W 005°16'0 0.1
2018-Jun-15 18:47N 51°47' W 005°16'0 0.1
2018-Jun-15 18:23N 51°47' W 005°16'0 0.0
2018-Jun-15 16:59N 51°47' W 005°16'0 0.2
2018-Jun-15 16:27N 51°47' W 005°16'1 2.9
2018-Jun-15 16:00N 51°47' W 005°18'4 7.9
2018-Jun-15 15:31N 51°47' W 005°24'3114.3
2018-Jun-15 13:19N 52°16' W 005°45'614.4
2018-Jun-15 12:55N 52°21' W 005°48'613.9
2018-Jun-15 12:28N 52°27' W 005°49'2712.4
2018-Jun-15 10:16N 52°55' W 005°53'311.1
2018-Jun-15 10:00N 52°58' W 005°54'510.5
2018-Jun-15 09:31N 53°03' W 005°55'510.2
2018-Jun-15 09:00N 53°08' W 005°56'610.8
2018-Jun-15 08:30N 53°13' W 005°59'  
2018-Jun-12 20:08N 53°17' W 006°01'1 3.5
2018-Jun-12 19:58N 53°17' W 006°00'0 0.8
2018-Jun-12 19:28N 53°17' W 005°59'2 2.7
2018-Jun-12 18:54N 53°16' W 005°60'3 6.6
2018-Jun-12 18:29N 53°13' W 005°58'510.2
2018-Jun-12 18:00N 53°09' W 005°56'612.0
2018-Jun-12 17:30N 53°03' W 005°55'815.2
2018-Jun-12 17:01N 52°55' W 005°52'815.0
2018-Jun-12 16:28N 52°47' W 005°49'1613.4
2018-Jun-12 15:16N 52°31' W 005°49'712.2
2018-Jun-12 14:43N 52°24' W 005°49'312.1
2018-Jun-12 14:28N 52°21' W 005°49'611.5
2018-Jun-12 13:55N 52°15' W 005°48'38 9.4
2018-Jun-12 09:53N 51°39' W 005°27'513.2
2018-Jun-12 09:30N 51°39' W 005°19'610.9
2018-Jun-12 09:00N 51°40' W 005°11'5 9.2
2018-Jun-12 08:30N 51°42' W 005°04'1 1.1
2018-Jun-12 07:55N 51°42' W 005°03'0 0.0
2018-Jun-12 07:28N 51°42' W 005°03'0 0.0
2018-Jun-12 06:55N 51°42' W 005°03'0 0.0
2018-Jun-12 06:28N 51°42' W 005°03'0 0.0
2018-Jun-12 05:58N 51°42' W 005°03'0 0.0
2018-Jun-12 05:28N 51°42' W 005°03'0 0.0
2018-Jun-12 04:58N 51°42' W 005°03'0 0.0
2018-Jun-12 04:28N 51°42' W 005°03'0 0.0
2018-Jun-12 03:58N 51°42' W 005°03'0 0.0
2018-Jun-12 03:28N 51°42' W 005°03'0 0.0
2018-Jun-12 02:58N 51°42' W 005°03'0 0.0
2018-Jun-12 02:28N 51°42' W 005°03'0 0.0
2018-Jun-12 01:55N 51°42' W 005°03'0 0.0
2018-Jun-12 01:28N 51°42' W 005°03'0 0.0
2018-Jun-12 00:58N 51°42' W 005°03'0 0.0
2018-Jun-12 00:25N 51°42' W 005°03'0 0.0
2018-Jun-11 23:55N 51°42' W 005°03'0 0.0
2018-Jun-11 23:28N 51°42' W 005°03'0 0.0
2018-Jun-11 22:58N 51°42' W 005°03'0 0.0
2018-Jun-11 22:25N 51°42' W 005°03'0 0.0
2018-Jun-11 21:58N 51°42' W 005°03'0 0.0
2018-Jun-11 21:25N 51°42' W 005°03'0 0.0
2018-Jun-11 20:55N 51°42' W 005°03'0 0.0
2018-Jun-11 20:28N 51°42' W 005°03'0 0.0
2018-Jun-11 19:58N 51°42' W 005°03'0 0.0
2018-Jun-11 19:28N 51°42' W 005°03'0 0.0
2018-Jun-11 18:55N 51°42' W 005°03'0 0.0
2018-Jun-11 18:28N 51°42' W 005°03'0 0.0
2018-Jun-11 17:58N 51°42' W 005°03'0 0.0
2018-Jun-11 17:28N 51°42' W 005°03'0 0.0
2018-Jun-11 16:58N 51°42' W 005°03'0 0.0
2018-Jun-11 16:28N 51°42' W 005°03'0 0.0
2018-Jun-11 15:58N 51°42' W 005°03'0 0.0
2018-Jun-11 15:28N 51°42' W 005°03'0 0.0
2018-Jun-11 14:58N 51°42' W 005°03'0 0.0
2018-Jun-11 14:28N 51°42' W 005°03'0 0.0
2018-Jun-11 13:52N 51°42' W 005°03'0 0.0
2018-Jun-11 13:28N 51°42' W 005°03'0 0.0
2018-Jun-11 12:58N 51°42' W 005°03'0 0.0
2018-Jun-11 12:22N 51°42' W 005°03'0 0.0
2018-Jun-11 11:58N 51°42' W 005°03'0 0.0
2018-Jun-11 11:28N 51°42' W 005°03'0 0.0
2018-Jun-11 10:58N 51°42' W 005°03'0 0.0
2018-Jun-11 10:28N 51°42' W 005°03'0 0.0
2018-Jun-11 09:58N 51°42' W 005°03'0 0.0
2018-Jun-11 09:19N 51°42' W 005°03'0 0.0
2018-Jun-11 08:58N 51°42' W 005°03'0 0.0
2018-Jun-11 08:28N 51°42' W 005°03'0 0.0
2018-Jun-11 07:58N 51°42' W 005°03'0 0.0
2018-Jun-11 07:28N 51°42' W 005°03'0 0.0
2018-Jun-11 06:58N 51°42' W 005°03'0 0.0
2018-Jun-11 06:28N 51°42' W 005°03'0 0.0
2018-Jun-11 05:55N 51°42' W 005°03'0 0.0
2018-Jun-11 05:25N 51°42' W 005°03'0 0.0
2018-Jun-11 04:58N 51°42' W 005°03'0 0.0
2018-Jun-11 04:28N 51°42' W 005°03'0 0.0
2018-Jun-11 03:58N 51°42' W 005°03'0 0.0
2018-Jun-11 03:25N 51°42' W 005°03'0 0.0
2018-Jun-11 02:58N 51°42' W 005°03'0 0.0
2018-Jun-11 02:28N 51°42' W 005°03'0 0.0
2018-Jun-11 01:58N 51°42' W 005°03'0 0.0
2018-Jun-11 01:30N 51°42' W 005°03'0 0.8
2018-Jun-11 01:00N 51°42' W 005°04'2 3.2
2018-Jun-11 00:30N 51°42' W 005°06'4 7.7
2018-Jun-11 00:00N 51°40' W 005°11'3 5.9
2018-Jun-10 23:30N 51°37' W 005°11'1 1.9
2018-Jun-10 23:00N 51°37' W 005°13'2 3.4
2018-Jun-10 22:30N 51°38' W 005°15'3 6.3
2018-Jun-10 22:01N 51°39' W 005°19'3 6.2
2018-Jun-10 21:30N 51°42' W 005°22'510.6
2018-Jun-10 21:00N 51°47' W 005°17'0 0.3
2018-Jun-10 19:17N 51°47' W 005°16'0 0.0
2018-Jun-10 18:59N 51°47' W 005°16'  
Track history (hours):
 
Tides and Currents Weather Stations Pressure Air Temp Water Temp Dewpoint Dewpoint Depression Visibility Wind Speed Wind Dir Waves Ship Positions

Orfeas

Last reported at 2018-Jun-20 15:23 UTC. Time now 2018-Jun-21 03:00 UTC.
Position N 50°59' W 009°47'.

Length 192 m; draft 12.2 m.

Type: Cargo ship. MMSI: 538001960.

Date/timePositionNaut miles runAvg speedWind from/ knotsBaromVisibWave heightAir tempDewpointWater temp
2018-Jun-20 15:23N 50°59' W 009°47'512.6
2018-Jun-20 15:00N 50°60' W 009°39'1212.7
2018-Jun-20 14:03N 51°03' W 009°21'112.8
2018-Jun-20 14:00N 51°03' W 009°20'712.9
2018-Jun-20 13:28N 51°05' W 009°09'1612.7
2018-Jun-20 12:11N 51°08' W 008°44'1912.3
2018-Jun-20 10:37N 51°13' W 008°14'212.2
2018-Jun-20 10:25N 51°13' W 008°10'512.2
2018-Jun-20 09:58N 51°14' W 008°02'612.2
2018-Jun-20 09:30N 51°16' W 007°53'612.2
2018-Jun-20 09:00N 51°17' W 007°43'8012.3
2018-Jun-20 02:30N 51°35' W 005°39'713.1
2018-Jun-20 02:00N 51°37' W 005°29'713.2
2018-Jun-20 01:30N 51°39' W 005°18'5 9.5
2018-Jun-20 01:00N 51°40' W 005°11'4 8.5
2018-Jun-20 00:30N 51°42' W 005°05'2 3.7
2018-Jun-20 00:00N 51°42' W 005°02'  
2018-Jun-17 09:19N 51°42' W 005°02'0 0.0
2018-Jun-17 09:00N 51°42' W 005°02'2 3.7
2018-Jun-17 08:31N 51°42' W 005°05'4 7.7
2018-Jun-17 08:00N 51°40' W 005°10'5 9.5
2018-Jun-17 07:31N 51°36' W 005°15'4 8.6
2018-Jun-17 07:00N 51°33' W 005°11'3 5.6
2018-Jun-17 06:31N 51°30' W 005°10'4 7.1
2018-Jun-17 06:01N 51°27' W 005°09'2 3.1
2018-Jun-17 05:30N 51°26' W 005°11'1 2.6
2018-Jun-17 05:01N 51°26' W 005°13'1 2.6
2018-Jun-17 04:29N 51°27' W 005°15'1 2.6
2018-Jun-17 04:00N 51°27' W 005°17'1 2.6
2018-Jun-17 03:30N 51°28' W 005°19'1 2.4
2018-Jun-17 03:00N 51°29' W 005°20'2 3.2
2018-Jun-17 02:31N 51°30' W 005°21'2 4.4
2018-Jun-17 02:01N 51°32' W 005°20'2 3.1
2018-Jun-17 01:30N 51°34' W 005°19'1 3.0
2018-Jun-17 01:01N 51°35' W 005°18'1 3.0
2018-Jun-17 00:31N 51°36' W 005°16'1 2.8
2018-Jun-17 00:01N 51°37' W 005°14'1 2.4
2018-Jun-16 23:30N 51°38' W 005°13'3 6.3
2018-Jun-16 23:01N 51°39' W 005°18'2 3.9
2018-Jun-16 22:31N 51°39' W 005°21'4 7.2
2018-Jun-16 22:01N 51°43' W 005°21'4 7.1
2018-Jun-16 21:30N 51°46' W 005°18'1 0.1
2018-Jun-16 13:26N 51°46' W 005°16'0 0.0
2018-Jun-16 06:17N 51°47' W 005°16'0 0.1
2018-Jun-16 05:53N 51°47' W 005°16'0 0.0
2018-Jun-16 05:14N 51°47' W 005°16'0 0.1
2018-Jun-16 04:41N 51°47' W 005°16'0 0.1
2018-Jun-16 04:23N 51°47' W 005°16'0 0.0
2018-Jun-16 03:08N 51°47' W 005°16'0 0.0
2018-Jun-16 02:59N 51°47' W 005°16'0 0.1
2018-Jun-16 01:23N 51°47' W 005°16'0 0.0
2018-Jun-15 23:38N 51°47' W 005°16'0 0.1
2018-Jun-15 23:17N 51°47' W 005°16'0 0.0
2018-Jun-15 22:53N 51°47' W 005°16'0 0.0
2018-Jun-15 22:29N 51°47' W 005°16'0 0.0
2018-Jun-15 21:26N 51°47' W 005°16'0 0.0
2018-Jun-15 20:53N 51°47' W 005°16'0 0.1
2018-Jun-15 18:47N 51°47' W 005°16'0 0.1
2018-Jun-15 18:23N 51°47' W 005°16'0 0.0
2018-Jun-15 16:59N 51°47' W 005°16'0 0.2
2018-Jun-15 16:27N 51°47' W 005°16'1 2.9
2018-Jun-15 16:00N 51°47' W 005°18'4 7.9
2018-Jun-15 15:31N 51°47' W 005°24'3114.3
2018-Jun-15 13:19N 52°16' W 005°45'614.4
2018-Jun-15 12:55N 52°21' W 005°48'613.9
2018-Jun-15 12:28N 52°27' W 005°49'2712.4
2018-Jun-15 10:16N 52°55' W 005°53'311.1
2018-Jun-15 10:00N 52°58' W 005°54'510.5
2018-Jun-15 09:31N 53°03' W 005°55'510.2
2018-Jun-15 09:00N 53°08' W 005°56'610.8
2018-Jun-15 08:30N 53°13' W 005°59'  
2018-Jun-12 20:08N 53°17' W 006°01'1 3.5
2018-Jun-12 19:58N 53°17' W 006°00'0 0.8
2018-Jun-12 19:28N 53°17' W 005°59'2 2.7
2018-Jun-12 18:54N 53°16' W 005°60'3 6.6
2018-Jun-12 18:29N 53°13' W 005°58'510.2
2018-Jun-12 18:00N 53°09' W 005°56'612.0
2018-Jun-12 17:30N 53°03' W 005°55'815.2
2018-Jun-12 17:01N 52°55' W 005°52'815.0
2018-Jun-12 16:28N 52°47' W 005°49'1613.4
2018-Jun-12 15:16N 52°31' W 005°49'712.2
2018-Jun-12 14:43N 52°24' W 005°49'312.1
2018-Jun-12 14:28N 52°21' W 005°49'611.5
2018-Jun-12 13:55N 52°15' W 005°48'38 9.4
2018-Jun-12 09:53N 51°39' W 005°27'513.2
2018-Jun-12 09:30N 51°39' W 005°19'610.9
2018-Jun-12 09:00N 51°40' W 005°11'5 9.2
2018-Jun-12 08:30N 51°42' W 005°04'1 1.1
2018-Jun-12 07:55N 51°42' W 005°03'0 0.0
2018-Jun-12 07:28N 51°42' W 005°03'0 0.0
2018-Jun-12 06:55N 51°42' W 005°03'0 0.0
2018-Jun-12 06:28N 51°42' W 005°03'0 0.0
2018-Jun-12 05:58N 51°42' W 005°03'0 0.0
2018-Jun-12 05:28N 51°42' W 005°03'0 0.0
2018-Jun-12 04:58N 51°42' W 005°03'0 0.0
2018-Jun-12 04:28N 51°42' W 005°03'0 0.0
2018-Jun-12 03:58N 51°42' W 005°03'0 0.0
2018-Jun-12 03:28N 51°42' W 005°03'0 0.0
2018-Jun-12 02:58N 51°42' W 005°03'0 0.0
2018-Jun-12 02:28N 51°42' W 005°03'0 0.0
2018-Jun-12 01:55N 51°42' W 005°03'0 0.0
2018-Jun-12 01:28N 51°42' W 005°03'0 0.0
2018-Jun-12 00:58N 51°42' W 005°03'0 0.0
2018-Jun-12 00:25N 51°42' W 005°03'0 0.0
2018-Jun-11 23:55N 51°42' W 005°03'0 0.0
2018-Jun-11 23:28N 51°42' W 005°03'0 0.0
2018-Jun-11 22:58N 51°42' W 005°03'0 0.0
2018-Jun-11 22:25N 51°42' W 005°03'0 0.0
2018-Jun-11 21:58N 51°42' W 005°03'0 0.0
2018-Jun-11 21:25N 51°42' W 005°03'0 0.0
2018-Jun-11 20:55N 51°42' W 005°03'0 0.0
2018-Jun-11 20:28N 51°42' W 005°03'0 0.0
2018-Jun-11 19:58N 51°42' W 005°03'0 0.0
2018-Jun-11 19:28N 51°42' W 005°03'0 0.0
2018-Jun-11 18:55N 51°42' W 005°03'0 0.0
2018-Jun-11 18:28N 51°42' W 005°03'0 0.0
2018-Jun-11 17:58N 51°42' W 005°03'0 0.0
2018-Jun-11 17:28N 51°42' W 005°03'0 0.0
2018-Jun-11 16:58N 51°42' W 005°03'0 0.0
2018-Jun-11 16:28N 51°42' W 005°03'0 0.0
2018-Jun-11 15:58N 51°42' W 005°03'0 0.0
2018-Jun-11 15:28N 51°42' W 005°03'0 0.0
2018-Jun-11 14:58N 51°42' W 005°03'0 0.0
2018-Jun-11 14:28N 51°42' W 005°03'0 0.0
2018-Jun-11 13:52N 51°42' W 005°03'0 0.0
2018-Jun-11 13:28N 51°42' W 005°03'0 0.0
2018-Jun-11 12:58N 51°42' W 005°03'0 0.0
2018-Jun-11 12:22N 51°42' W 005°03'0 0.0
2018-Jun-11 11:58N 51°42' W 005°03'0 0.0
2018-Jun-11 11:28N 51°42' W 005°03'0 0.0
2018-Jun-11 10:58N 51°42' W 005°03'0 0.0
2018-Jun-11 10:28N 51°42' W 005°03'0 0.0
2018-Jun-11 09:58N 51°42' W 005°03'0 0.0
2018-Jun-11 09:19N 51°42' W 005°03'0 0.0
2018-Jun-11 08:58N 51°42' W 005°03'0 0.0
2018-Jun-11 08:28N 51°42' W 005°03'0 0.0
2018-Jun-11 07:58N 51°42' W 005°03'0 0.0
2018-Jun-11 07:28N 51°42' W 005°03'0 0.0
2018-Jun-11 06:58N 51°42' W 005°03'0 0.0
2018-Jun-11 06:28N 51°42' W 005°03'0 0.0
2018-Jun-11 05:55N 51°42' W 005°03'0 0.0
2018-Jun-11 05:25N 51°42' W 005°03'0 0.0
2018-Jun-11 04:58N 51°42' W 005°03'0 0.0
2018-Jun-11 04:28N 51°42' W 005°03'0 0.0
2018-Jun-11 03:58N 51°42' W 005°03'0 0.0
2018-Jun-11 03:25N 51°42' W 005°03'0 0.0
2018-Jun-11 02:58N 51°42' W 005°03'0 0.0
2018-Jun-11 02:28N 51°42' W 005°03'0 0.0
2018-Jun-11 01:58N 51°42' W 005°03'0 0.0
2018-Jun-11 01:30N 51°42' W 005°03'0 0.8
2018-Jun-11 01:00N 51°42' W 005°04'2 3.2
2018-Jun-11 00:30N 51°42' W 005°06'4 7.7
2018-Jun-11 00:00N 51°40' W 005°11'3 5.9
2018-Jun-10 23:30N 51°37' W 005°11'1 1.9
2018-Jun-10 23:00N 51°37' W 005°13'2 3.4
2018-Jun-10 22:30N 51°38' W 005°15'3 6.3
2018-Jun-10 22:01N 51°39' W 005°19'3 6.2
2018-Jun-10 21:30N 51°42' W 005°22'510.6
2018-Jun-10 21:00N 51°47' W 005°17'0 0.3
2018-Jun-10 19:17N 51°47' W 005°16'0 0.0
2018-Jun-10 18:59N 51°47' W 005°16'  

Dump ship's entire track history